sensor_id;sensor_type;location;lat;lon;timestamp;P1;durP1;ratioP1;P2;durP2;ratioP2
84266;SDS011;74414;51.098;13.716;2024-01-15T00:00:40;9.63;;;4.30;;
84266;SDS011;74414;51.098;13.716;2024-01-15T00:03:06;8.65;;;4.88;;
84266;SDS011;74414;51.098;13.716;2024-01-15T00:05:32;10.93;;;4.80;;
84266;SDS011;74414;51.098;13.716;2024-01-15T00:07:57;12.02;;;5.22;;
84266;SDS011;74414;51.098;13.716;2024-01-15T00:10:23;10.95;;;5.45;;
84266;SDS011;74414;51.098;13.716;2024-01-15T00:12:48;10.02;;;4.55;;
84266;SDS011;74414;51.098;13.716;2024-01-15T00:15:14;11.73;;;5.35;;
84266;SDS011;74414;51.098;13.716;2024-01-15T00:17:40;10.18;;;4.68;;
84266;SDS011;74414;51.098;13.716;2024-01-15T00:20:05;8.27;;;4.45;;
84266;SDS011;74414;51.098;13.716;2024-01-15T00:22:31;9.13;;;4.70;;
84266;SDS011;74414;51.098;13.716;2024-01-15T00:24:57;10.50;;;4.97;;
84266;SDS011;74414;51.098;13.716;2024-01-15T00:27:23;8.70;;;4.38;;
84266;SDS011;74414;51.098;13.716;2024-01-15T00:29:49;6.80;;;4.10;;
84266;SDS011;74414;51.098;13.716;2024-01-15T00:32:19;10.13;;;4.78;;
84266;SDS011;74414;51.098;13.716;2024-01-15T00:34:45;10.95;;;5.40;;
84266;SDS011;74414;51.098;13.716;2024-01-15T00:37:11;10.43;;;4.88;;
84266;SDS011;74414;51.098;13.716;2024-01-15T00:39:36;11.88;;;5.22;;
84266;SDS011;74414;51.098;13.716;2024-01-15T00:42:02;9.80;;;4.83;;
84266;SDS011;74414;51.098;13.716;2024-01-15T00:44:28;9.90;;;4.65;;
84266;SDS011;74414;51.098;13.716;2024-01-15T00:46:53;9.05;;;5.15;;
84266;SDS011;74414;51.098;13.716;2024-01-15T00:49:19;10.20;;;4.73;;
84266;SDS011;74414;51.098;13.716;2024-01-15T00:51:44;10.00;;;5.13;;
84266;SDS011;74414;51.098;13.716;2024-01-15T00:54:09;8.03;;;4.17;;
84266;SDS011;74414;51.098;13.716;2024-01-15T00:56:35;11.52;;;4.88;;
84266;SDS011;74414;51.098;13.716;2024-01-15T00:59:00;9.93;;;4.65;;
84266;SDS011;74414;51.098;13.716;2024-01-15T01:01:25;11.90;;;4.30;;
84266;SDS011;74414;51.098;13.716;2024-01-15T01:03:51;8.43;;;4.63;;
84266;SDS011;74414;51.098;13.716;2024-01-15T01:06:16;13.77;;;5.72;;
84266;SDS011;74414;51.098;13.716;2024-01-15T01:08:42;11.20;;;4.80;;
84266;SDS011;74414;51.098;13.716;2024-01-15T01:11:07;9.45;;;5.03;;
84266;SDS011;74414;51.098;13.716;2024-01-15T01:13:38;11.77;;;5.03;;
84266;SDS011;74414;51.098;13.716;2024-01-15T01:16:03;7.10;;;4.13;;
84266;SDS011;74414;51.098;13.716;2024-01-15T01:18:29;9.95;;;5.10;;
84266;SDS011;74414;51.098;13.716;2024-01-15T01:20:54;10.43;;;4.95;;
84266;SDS011;74414;51.098;13.716;2024-01-15T01:23:20;11.23;;;6.28;;
84266;SDS011;74414;51.098;13.716;2024-01-15T01:25:45;12.80;;;5.17;;
84266;SDS011;74414;51.098;13.716;2024-01-15T01:28:10;11.05;;;6.03;;
84266;SDS011;74414;51.098;13.716;2024-01-15T01:30:36;12.10;;;6.28;;
84266;SDS011;74414;51.098;13.716;2024-01-15T01:33:01;11.53;;;5.47;;
84266;SDS011;74414;51.098;13.716;2024-01-15T01:35:26;11.53;;;5.30;;
84266;SDS011;74414;51.098;13.716;2024-01-15T01:37:52;10.10;;;5.23;;
84266;SDS011;74414;51.098;13.716;2024-01-15T01:40:17;11.03;;;5.50;;
84266;SDS011;74414;51.098;13.716;2024-01-15T01:42:43;9.63;;;5.05;;
84266;SDS011;74414;51.098;13.716;2024-01-15T01:45:08;13.33;;;5.07;;
84266;SDS011;74414;51.098;13.716;2024-01-15T01:47:34;10.43;;;5.10;;
84266;SDS011;74414;51.098;13.716;2024-01-15T01:49:59;12.27;;;6.50;;
84266;SDS011;74414;51.098;13.716;2024-01-15T01:52:26;13.88;;;5.95;;
84266;SDS011;74414;51.098;13.716;2024-01-15T01:54:51;10.98;;;5.72;;
84266;SDS011;74414;51.098;13.716;2024-01-15T01:57:17;13.82;;;6.55;;
84266;SDS011;74414;51.098;13.716;2024-01-15T01:59:43;10.85;;;5.85;;
84266;SDS011;74414;51.098;13.716;2024-01-15T02:02:10;9.38;;;4.93;;
84266;SDS011;74414;51.098;13.716;2024-01-15T02:04:36;11.48;;;5.53;;
84266;SDS011;74414;51.098;13.716;2024-01-15T02:07:03;10.98;;;5.05;;
84266;SDS011;74414;51.098;13.716;2024-01-15T02:09:29;14.45;;;5.32;;
84266;SDS011;74414;51.098;13.716;2024-01-15T02:11:55;9.48;;;4.97;;
84266;SDS011;74414;51.098;13.716;2024-01-15T02:14:21;13.05;;;6.35;;
84266;SDS011;74414;51.098;13.716;2024-01-15T02:16:47;10.65;;;4.75;;
84266;SDS011;74414;51.098;13.716;2024-01-15T02:19:16;11.55;;;5.97;;
84266;SDS011;74414;51.098;13.716;2024-01-15T02:21:43;11.52;;;5.90;;
84266;SDS011;74414;51.098;13.716;2024-01-15T02:24:09;14.00;;;6.60;;
84266;SDS011;74414;51.098;13.716;2024-01-15T02:26:35;12.95;;;4.63;;
84266;SDS011;74414;51.098;13.716;2024-01-15T02:29:03;13.15;;;5.57;;
84266;SDS011;74414;51.098;13.716;2024-01-15T02:31:31;11.20;;;5.13;;
84266;SDS011;74414;51.098;13.716;2024-01-15T02:33:56;10.82;;;5.13;;
84266;SDS011;74414;51.098;13.716;2024-01-15T02:36:23;9.82;;;5.07;;
84266;SDS011;74414;51.098;13.716;2024-01-15T02:38:49;13.50;;;5.55;;
84266;SDS011;74414;51.098;13.716;2024-01-15T02:41:15;10.55;;;5.45;;
84266;SDS011;74414;51.098;13.716;2024-01-15T02:43:41;17.77;;;6.63;;
84266;SDS011;74414;51.098;13.716;2024-01-15T02:46:07;10.13;;;5.20;;
84266;SDS011;74414;51.098;13.716;2024-01-15T02:48:32;11.27;;;5.78;;
84266;SDS011;74414;51.098;13.716;2024-01-15T02:51:00;11.85;;;6.32;;
84266;SDS011;74414;51.098;13.716;2024-01-15T02:53:26;17.40;;;7.25;;
84266;SDS011;74414;51.098;13.716;2024-01-15T02:55:52;10.57;;;5.55;;
84266;SDS011;74414;51.098;13.716;2024-01-15T02:58:18;12.10;;;5.60;;
84266;SDS011;74414;51.098;13.716;2024-01-15T03:00:44;15.07;;;5.95;;
84266;SDS011;74414;51.098;13.716;2024-01-15T03:03:12;10.50;;;5.25;;
84266;SDS011;74414;51.098;13.716;2024-01-15T03:05:38;13.15;;;6.75;;
84266;SDS011;74414;51.098;13.716;2024-01-15T03:08:04;12.00;;;6.05;;
84266;SDS011;74414;51.098;13.716;2024-01-15T03:10:29;15.80;;;6.07;;
84266;SDS011;74414;51.098;13.716;2024-01-15T03:12:56;13.15;;;5.82;;
84266;SDS011;74414;51.098;13.716;2024-01-15T03:15:23;11.27;;;5.72;;
84266;SDS011;74414;51.098;13.716;2024-01-15T03:17:49;14.82;;;6.78;;
84266;SDS011;74414;51.098;13.716;2024-01-15T03:20:15;12.95;;;5.88;;
84266;SDS011;74414;51.098;13.716;2024-01-15T03:22:42;13.23;;;6.53;;
84266;SDS011;74414;51.098;13.716;2024-01-15T03:25:08;13.57;;;6.63;;
84266;SDS011;74414;51.098;13.716;2024-01-15T03:27:34;10.48;;;5.05;;
84266;SDS011;74414;51.098;13.716;2024-01-15T03:30:00;14.82;;;6.68;;
84266;SDS011;74414;51.098;13.716;2024-01-15T03:32:28;13.50;;;5.50;;
84266;SDS011;74414;51.098;13.716;2024-01-15T03:34:54;13.02;;;5.95;;
84266;SDS011;74414;51.098;13.716;2024-01-15T03:37:20;11.65;;;5.93;;
84266;SDS011;74414;51.098;13.716;2024-01-15T03:39:46;13.13;;;6.85;;
84266;SDS011;74414;51.098;13.716;2024-01-15T03:42:12;12.55;;;5.72;;
84266;SDS011;74414;51.098;13.716;2024-01-15T03:44:37;13.48;;;6.55;;
84266;SDS011;74414;51.098;13.716;2024-01-15T03:47:03;15.77;;;7.38;;
84266;SDS011;74414;51.098;13.716;2024-01-15T03:49:29;13.48;;;6.30;;
84266;SDS011;74414;51.098;13.716;2024-01-15T03:51:55;13.70;;;6.22;;
84266;SDS011;74414;51.098;13.716;2024-01-15T03:54:21;18.98;;;7.60;;
84266;SDS011;74414;51.098;13.716;2024-01-15T03:56:47;14.30;;;6.43;;
84266;SDS011;74414;51.098;13.716;2024-01-15T03:59:12;15.98;;;6.85;;
84266;SDS011;74414;51.098;13.716;2024-01-15T04:01:38;16.52;;;6.72;;
84266;SDS011;74414;51.098;13.716;2024-01-15T04:04:04;16.85;;;7.72;;
84266;SDS011;74414;51.098;13.716;2024-01-15T04:06:29;15.20;;;7.13;;
84266;SDS011;74414;51.098;13.716;2024-01-15T04:08:55;16.45;;;6.70;;
84266;SDS011;74414;51.098;13.716;2024-01-15T04:11:21;15.65;;;6.45;;
84266;SDS011;74414;51.098;13.716;2024-01-15T04:13:47;13.63;;;6.45;;
84266;SDS011;74414;51.098;13.716;2024-01-15T04:16:14;13.30;;;6.45;;
84266;SDS011;74414;51.098;13.716;2024-01-15T04:18:39;15.43;;;6.32;;
84266;SDS011;74414;51.098;13.716;2024-01-15T04:21:06;13.27;;;5.75;;
84266;SDS011;74414;51.098;13.716;2024-01-15T04:23:32;19.38;;;7.20;;
84266;SDS011;74414;51.098;13.716;2024-01-15T04:25:58;13.85;;;6.25;;
84266;SDS011;74414;51.098;13.716;2024-01-15T04:28:24;13.48;;;6.32;;
84266;SDS011;74414;51.098;13.716;2024-01-15T04:30:50;15.02;;;6.47;;
84266;SDS011;74414;51.098;13.716;2024-01-15T04:33:16;15.15;;;6.32;;
84266;SDS011;74414;51.098;13.716;2024-01-15T04:35:42;12.73;;;5.95;;
84266;SDS011;74414;51.098;13.716;2024-01-15T04:38:08;12.30;;;6.18;;
84266;SDS011;74414;51.098;13.716;2024-01-15T04:40:34;13.40;;;5.60;;
84266;SDS011;74414;51.098;13.716;2024-01-15T04:42:59;13.35;;;5.93;;
84266;SDS011;74414;51.098;13.716;2024-01-15T04:45:25;13.85;;;5.70;;
84266;SDS011;74414;51.098;13.716;2024-01-15T04:47:54;12.20;;;4.95;;
84266;SDS011;74414;51.098;13.716;2024-01-15T04:50:22;11.25;;;5.20;;
84266;SDS011;74414;51.098;13.716;2024-01-15T04:52:48;13.80;;;6.35;;
84266;SDS011;74414;51.098;13.716;2024-01-15T04:55:14;13.63;;;6.25;;
84266;SDS011;74414;51.098;13.716;2024-01-15T04:57:41;12.45;;;5.50;;
84266;SDS011;74414;51.098;13.716;2024-01-15T05:00:07;11.20;;;5.10;;
84266;SDS011;74414;51.098;13.716;2024-01-15T05:02:33;15.30;;;6.25;;
84266;SDS011;74414;51.098;13.716;2024-01-15T05:04:58;11.98;;;5.72;;
84266;SDS011;74414;51.098;13.716;2024-01-15T05:07:24;12.13;;;5.30;;
84266;SDS011;74414;51.098;13.716;2024-01-15T05:09:50;9.98;;;4.82;;
84266;SDS011;74414;51.098;13.716;2024-01-15T05:12:16;12.15;;;5.53;;
84266;SDS011;74414;51.098;13.716;2024-01-15T05:14:42;15.65;;;6.15;;
84266;SDS011;74414;51.098;13.716;2024-01-15T05:17:07;12.68;;;6.13;;
84266;SDS011;74414;51.098;13.716;2024-01-15T05:19:33;14.38;;;5.15;;
84266;SDS011;74414;51.098;13.716;2024-01-15T05:21:58;15.37;;;6.27;;
84266;SDS011;74414;51.098;13.716;2024-01-15T05:24:24;29.45;;;12.43;;
84266;SDS011;74414;51.098;13.716;2024-01-15T05:26:51;30.52;;;10.30;;
84266;SDS011;74414;51.098;13.716;2024-01-15T05:29:17;26.15;;;9.90;;
84266;SDS011;74414;51.098;13.716;2024-01-15T05:31:43;33.58;;;11.75;;
84266;SDS011;74414;51.098;13.716;2024-01-15T05:34:09;17.02;;;7.90;;
84266;SDS011;74414;51.098;13.716;2024-01-15T05:36:34;13.48;;;6.53;;
84266;SDS011;74414;51.098;13.716;2024-01-15T05:39:00;13.60;;;6.05;;
84266;SDS011;74414;51.098;13.716;2024-01-15T05:41:26;13.40;;;8.35;;
84266;SDS011;74414;51.098;13.716;2024-01-15T05:43:52;14.02;;;6.30;;
84266;SDS011;74414;51.098;13.716;2024-01-15T05:46:17;13.80;;;5.72;;
84266;SDS011;74414;51.098;13.716;2024-01-15T05:48:43;10.32;;;4.43;;
84266;SDS011;74414;51.098;13.716;2024-01-15T05:51:08;8.63;;;4.32;;
84266;SDS011;74414;51.098;13.716;2024-01-15T05:53:35;10.57;;;4.97;;
84266;SDS011;74414;51.098;13.716;2024-01-15T05:56:00;11.90;;;5.68;;
84266;SDS011;74414;51.098;13.716;2024-01-15T05:58:26;12.77;;;4.95;;
84266;SDS011;74414;51.098;13.716;2024-01-15T06:00:51;9.88;;;5.35;;
84266;SDS011;74414;51.098;13.716;2024-01-15T06:03:17;9.50;;;5.13;;
84266;SDS011;74414;51.098;13.716;2024-01-15T06:05:43;13.20;;;6.55;;
84266;SDS011;74414;51.098;13.716;2024-01-15T06:08:09;13.48;;;6.32;;
84266;SDS011;74414;51.098;13.716;2024-01-15T06:10:34;11.73;;;5.88;;
84266;SDS011;74414;51.098;13.716;2024-01-15T06:13:00;10.30;;;4.63;;
84266;SDS011;74414;51.098;13.716;2024-01-15T06:15:25;14.52;;;5.15;;
84266;SDS011;74414;51.098;13.716;2024-01-15T06:17:51;10.48;;;4.85;;
84266;SDS011;74414;51.098;13.716;2024-01-15T06:20:16;11.05;;;5.65;;
84266;SDS011;74414;51.098;13.716;2024-01-15T06:22:41;9.38;;;4.43;;
84266;SDS011;74414;51.098;13.716;2024-01-15T06:25:07;14.38;;;5.45;;
84266;SDS011;74414;51.098;13.716;2024-01-15T06:27:34;10.32;;;4.00;;
84266;SDS011;74414;51.098;13.716;2024-01-15T06:29:59;8.27;;;4.32;;
84266;SDS011;74414;51.098;13.716;2024-01-15T06:32:25;11.77;;;4.82;;
84266;SDS011;74414;51.098;13.716;2024-01-15T06:34:51;10.48;;;4.32;;
84266;SDS011;74414;51.098;13.716;2024-01-15T06:37:16;12.18;;;4.80;;
84266;SDS011;74414;51.098;13.716;2024-01-15T06:39:44;11.35;;;5.13;;
84266;SDS011;74414;51.098;13.716;2024-01-15T06:42:10;12.82;;;4.57;;
84266;SDS011;74414;51.098;13.716;2024-01-15T06:44:35;9.80;;;4.75;;
84266;SDS011;74414;51.098;13.716;2024-01-15T06:47:01;10.13;;;5.05;;
84266;SDS011;74414;51.098;13.716;2024-01-15T06:49:28;11.40;;;4.93;;
84266;SDS011;74414;51.098;13.716;2024-01-15T06:51:55;10.45;;;4.82;;
84266;SDS011;74414;51.098;13.716;2024-01-15T06:54:21;10.85;;;4.97;;
84266;SDS011;74414;51.098;13.716;2024-01-15T06:56:46;9.57;;;4.88;;
84266;SDS011;74414;51.098;13.716;2024-01-15T06:59:12;9.95;;;4.82;;
84266;SDS011;74414;51.098;13.716;2024-01-15T07:01:37;10.20;;;4.88;;
84266;SDS011;74414;51.098;13.716;2024-01-15T07:04:03;12.88;;;4.60;;
84266;SDS011;74414;51.098;13.716;2024-01-15T07:06:28;11.50;;;5.15;;
84266;SDS011;74414;51.098;13.716;2024-01-15T07:08:56;10.18;;;5.38;;
84266;SDS011;74414;51.098;13.716;2024-01-15T07:11:21;9.90;;;4.97;;
84266;SDS011;74414;51.098;13.716;2024-01-15T07:13:47;10.98;;;4.40;;
84266;SDS011;74414;51.098;13.716;2024-01-15T07:16:12;9.07;;;4.60;;
84266;SDS011;74414;51.098;13.716;2024-01-15T07:18:38;11.00;;;4.63;;
84266;SDS011;74414;51.098;13.716;2024-01-15T07:21:04;10.27;;;4.70;;
84266;SDS011;74414;51.098;13.716;2024-01-15T07:23:30;9.80;;;3.92;;
84266;SDS011;74414;51.098;13.716;2024-01-15T07:25:56;10.23;;;4.35;;
84266;SDS011;74414;51.098;13.716;2024-01-15T07:28:22;10.23;;;4.32;;
84266;SDS011;74414;51.098;13.716;2024-01-15T07:30:48;11.73;;;4.38;;
84266;SDS011;74414;51.098;13.716;2024-01-15T07:33:13;12.25;;;4.80;;
84266;SDS011;74414;51.098;13.716;2024-01-15T07:35:39;12.30;;;5.53;;
84266;SDS011;74414;51.098;13.716;2024-01-15T07:38:04;13.00;;;5.20;;
84266;SDS011;74414;51.098;13.716;2024-01-15T07:40:30;10.65;;;4.72;;
84266;SDS011;74414;51.098;13.716;2024-01-15T07:42:55;12.07;;;4.78;;
84266;SDS011;74414;51.098;13.716;2024-01-15T07:45:21;9.55;;;4.20;;
84266;SDS011;74414;51.098;13.716;2024-01-15T07:47:46;10.85;;;5.00;;
84266;SDS011;74414;51.098;13.716;2024-01-15T07:50:11;11.32;;;4.80;;
84266;SDS011;74414;51.098;13.716;2024-01-15T07:52:37;7.72;;;4.00;;
84266;SDS011;74414;51.098;13.716;2024-01-15T07:55:04;8.60;;;4.85;;
84266;SDS011;74414;51.098;13.716;2024-01-15T07:57:30;10.40;;;4.43;;
84266;SDS011;74414;51.098;13.716;2024-01-15T07:59:56;11.07;;;4.50;;
84266;SDS011;74414;51.098;13.716;2024-01-15T08:02:21;11.07;;;5.00;;
84266;SDS011;74414;51.098;13.716;2024-01-15T08:04:47;11.70;;;4.80;;
84266;SDS011;74414;51.098;13.716;2024-01-15T08:07:12;20.30;;;8.93;;
84266;SDS011;74414;51.098;13.716;2024-01-15T08:09:38;14.82;;;5.60;;
84266;SDS011;74414;51.098;13.716;2024-01-15T08:12:03;23.57;;;10.40;;
84266;SDS011;74414;51.098;13.716;2024-01-15T08:14:31;12.52;;;6.20;;
84266;SDS011;74414;51.098;13.716;2024-01-15T08:16:56;11.27;;;5.88;;
84266;SDS011;74414;51.098;13.716;2024-01-15T08:19:22;9.97;;;4.57;;
84266;SDS011;74414;51.098;13.716;2024-01-15T08:21:48;14.30;;;5.18;;
84266;SDS011;74414;51.098;13.716;2024-01-15T08:24:14;16.13;;;5.78;;
84266;SDS011;74414;51.098;13.716;2024-01-15T08:26:40;19.95;;;9.15;;
84266;SDS011;74414;51.098;13.716;2024-01-15T08:29:05;12.07;;;5.65;;
84266;SDS011;74414;51.098;13.716;2024-01-15T08:31:31;15.00;;;7.88;;
84266;SDS011;74414;51.098;13.716;2024-01-15T08:33:56;12.55;;;5.85;;
84266;SDS011;74414;51.098;13.716;2024-01-15T08:36:22;18.67;;;6.22;;
84266;SDS011;74414;51.098;13.716;2024-01-15T08:38:49;10.80;;;5.15;;
84266;SDS011;74414;51.098;13.716;2024-01-15T08:41:15;10.60;;;5.18;;
84266;SDS011;74414;51.098;13.716;2024-01-15T08:43:40;14.95;;;5.80;;
84266;SDS011;74414;51.098;13.716;2024-01-15T08:46:06;10.25;;;4.97;;
84266;SDS011;74414;51.098;13.716;2024-01-15T08:48:32;10.98;;;5.10;;
84266;SDS011;74414;51.098;13.716;2024-01-15T08:50:57;10.98;;;4.95;;
84266;SDS011;74414;51.098;13.716;2024-01-15T08:53:23;9.02;;;5.00;;
84266;SDS011;74414;51.098;13.716;2024-01-15T08:55:48;9.65;;;4.57;;
84266;SDS011;74414;51.098;13.716;2024-01-15T08:58:14;11.95;;;5.20;;
84266;SDS011;74414;51.098;13.716;2024-01-15T09:00:40;11.00;;;5.13;;
84266;SDS011;74414;51.098;13.716;2024-01-15T09:03:05;10.32;;;5.40;;
84266;SDS011;74414;51.098;13.716;2024-01-15T09:05:31;8.70;;;4.60;;
84266;SDS011;74414;51.098;13.716;2024-01-15T09:07:57;10.98;;;4.68;;
84266;SDS011;74414;51.098;13.716;2024-01-15T09:10:23;10.80;;;4.90;;
84266;SDS011;74414;51.098;13.716;2024-01-15T09:12:49;11.38;;;4.93;;
84266;SDS011;74414;51.098;13.716;2024-01-15T09:15:15;8.32;;;5.18;;
84266;SDS011;74414;51.098;13.716;2024-01-15T09:17:40;11.00;;;3.85;;
84266;SDS011;74414;51.098;13.716;2024-01-15T09:20:06;8.05;;;4.35;;
84266;SDS011;74414;51.098;13.716;2024-01-15T09:22:33;5.93;;;3.28;;
84266;SDS011;74414;51.098;13.716;2024-01-15T09:24:58;8.40;;;4.22;;
84266;SDS011;74414;51.098;13.716;2024-01-15T09:27:24;9.53;;;3.97;;
84266;SDS011;74414;51.098;13.716;2024-01-15T09:29:51;7.85;;;4.18;;
84266;SDS011;74414;51.098;13.716;2024-01-15T09:32:18;9.18;;;3.70;;
84266;SDS011;74414;51.098;13.716;2024-01-15T09:34:44;7.15;;;3.90;;
84266;SDS011;74414;51.098;13.716;2024-01-15T09:37:11;7.20;;;4.05;;
84266;SDS011;74414;51.098;13.716;2024-01-15T09:39:36;7.97;;;4.00;;
84266;SDS011;74414;51.098;13.716;2024-01-15T09:42:02;7.75;;;3.72;;
84266;SDS011;74414;51.098;13.716;2024-01-15T09:44:29;9.35;;;4.90;;
84266;SDS011;74414;51.098;13.716;2024-01-15T09:46:55;7.30;;;3.65;;
84266;SDS011;74414;51.098;13.716;2024-01-15T09:49:21;7.70;;;3.85;;
84266;SDS011;74414;51.098;13.716;2024-01-15T09:51:47;7.82;;;3.53;;
84266;SDS011;74414;51.098;13.716;2024-01-15T09:54:12;6.28;;;3.65;;
84266;SDS011;74414;51.098;13.716;2024-01-15T09:56:38;9.68;;;4.07;;
84266;SDS011;74414;51.098;13.716;2024-01-15T09:59:04;10.07;;;3.78;;
84266;SDS011;74414;51.098;13.716;2024-01-15T10:01:31;7.03;;;3.28;;
84266;SDS011;74414;51.098;13.716;2024-01-15T10:03:57;7.10;;;3.20;;
84266;SDS011;74414;51.098;13.716;2024-01-15T10:06:24;9.13;;;3.90;;
84266;SDS011;74414;51.098;13.716;2024-01-15T10:08:52;7.28;;;3.63;;
84266;SDS011;74414;51.098;13.716;2024-01-15T10:11:19;6.65;;;3.15;;
84266;SDS011;74414;51.098;13.716;2024-01-15T10:13:44;8.20;;;3.73;;
84266;SDS011;74414;51.098;13.716;2024-01-15T10:16:10;8.07;;;3.42;;
84266;SDS011;74414;51.098;13.716;2024-01-15T10:18:36;5.53;;;3.30;;
84266;SDS011;74414;51.098;13.716;2024-01-15T10:21:02;6.93;;;3.42;;
84266;SDS011;74414;51.098;13.716;2024-01-15T10:23:29;8.65;;;3.38;;
84266;SDS011;74414;51.098;13.716;2024-01-15T10:25:57;7.15;;;3.40;;
84266;SDS011;74414;51.098;13.716;2024-01-15T10:28:25;7.80;;;3.80;;
84266;SDS011;74414;51.098;13.716;2024-01-15T10:30:52;8.60;;;4.05;;
84266;SDS011;74414;51.098;13.716;2024-01-15T10:33:22;10.75;;;3.67;;
84266;SDS011;74414;51.098;13.716;2024-01-15T10:35:50;5.88;;;3.10;;
84266;SDS011;74414;51.098;13.716;2024-01-15T10:38:19;7.45;;;4.03;;
84266;SDS011;74414;51.098;13.716;2024-01-15T10:40:53;5.78;;;3.10;;
84266;SDS011;74414;51.098;13.716;2024-01-15T10:43:20;5.40;;;3.13;;
84266;SDS011;74414;51.098;13.716;2024-01-15T10:45:50;7.70;;;3.85;;
84266;SDS011;74414;51.098;13.716;2024-01-15T10:48:17;7.20;;;4.38;;
84266;SDS011;74414;51.098;13.716;2024-01-15T10:50:43;9.48;;;3.83;;
84266;SDS011;74414;51.098;13.716;2024-01-15T10:53:10;6.00;;;3.13;;
84266;SDS011;74414;51.098;13.716;2024-01-15T10:55:37;7.78;;;3.70;;
84266;SDS011;74414;51.098;13.716;2024-01-15T10:58:03;8.45;;;3.55;;
84266;SDS011;74414;51.098;13.716;2024-01-15T11:00:29;7.28;;;2.85;;
84266;SDS011;74414;51.098;13.716;2024-01-15T11:02:56;9.07;;;3.70;;
84266;SDS011;74414;51.098;13.716;2024-01-15T11:05:22;6.07;;;3.30;;
84266;SDS011;74414;51.098;13.716;2024-01-15T11:07:51;6.85;;;3.33;;
84266;SDS011;74414;51.098;13.716;2024-01-15T11:10:40;7.00;;;3.50;;
84266;SDS011;74414;51.098;13.716;2024-01-15T11:13:10;9.43;;;3.08;;
84266;SDS011;74414;51.098;13.716;2024-01-15T11:15:54;6.93;;;2.97;;
84266;SDS011;74414;51.098;13.716;2024-01-15T11:18:34;7.38;;;3.25;;
84266;SDS011;74414;51.098;13.716;2024-01-15T11:23:42;6.60;;;3.10;;
84266;SDS011;74414;51.098;13.716;2024-01-15T11:26:26;5.95;;;3.55;;
84266;SDS011;74414;51.098;13.716;2024-01-15T11:29:10;9.95;;;3.90;;
84266;SDS011;74414;51.098;13.716;2024-01-15T11:37:26;8.32;;;3.67;;
84266;SDS011;74414;51.098;13.716;2024-01-15T11:39:53;10.15;;;4.85;;
84266;SDS011;74414;51.098;13.716;2024-01-15T11:42:25;11.60;;;4.22;;
84266;SDS011;74414;51.098;13.716;2024-01-15T11:44:50;9.10;;;3.90;;
84266;SDS011;74414;51.098;13.716;2024-01-15T11:47:16;7.23;;;4.47;;
84266;SDS011;74414;51.098;13.716;2024-01-15T11:50:03;9.23;;;3.63;;
84266;SDS011;74414;51.098;13.716;2024-01-15T11:52:37;10.95;;;3.95;;
84266;SDS011;74414;51.098;13.716;2024-01-15T11:55:18;7.97;;;4.43;;
84266;SDS011;74414;51.098;13.716;2024-01-15T11:57:50;9.15;;;3.95;;
84266;SDS011;74414;51.098;13.716;2024-01-15T12:00:17;10.40;;;3.83;;
84266;SDS011;74414;51.098;13.716;2024-01-15T12:02:44;6.18;;;3.63;;
84266;SDS011;74414;51.098;13.716;2024-01-15T12:05:11;9.75;;;4.07;;
84266;SDS011;74414;51.098;13.716;2024-01-15T12:07:40;7.60;;;3.65;;
84266;SDS011;74414;51.098;13.716;2024-01-15T12:10:19;7.85;;;3.95;;
84266;SDS011;74414;51.098;13.716;2024-01-15T12:12:59;9.45;;;3.45;;
84266;SDS011;74414;51.098;13.716;2024-01-15T12:15:29;7.53;;;3.63;;
84266;SDS011;74414;51.098;13.716;2024-01-15T12:17:57;7.55;;;3.40;;
84266;SDS011;74414;51.098;13.716;2024-01-15T12:20:24;10.07;;;3.45;;
84266;SDS011;74414;51.098;13.716;2024-01-15T12:22:51;6.25;;;3.25;;
84266;SDS011;74414;51.098;13.716;2024-01-15T12:25:16;6.88;;;2.90;;
84266;SDS011;74414;51.098;13.716;2024-01-15T12:27:41;5.83;;;3.30;;
84266;SDS011;74414;51.098;13.716;2024-01-15T12:30:07;10.90;;;3.78;;
84266;SDS011;74414;51.098;13.716;2024-01-15T12:32:36;5.90;;;2.80;;
84266;SDS011;74414;51.098;13.716;2024-01-15T12:35:01;5.65;;;3.08;;
84266;SDS011;74414;51.098;13.716;2024-01-15T12:37:27;7.93;;;3.45;;
84266;SDS011;74414;51.098;13.716;2024-01-15T12:39:54;7.43;;;3.20;;
84266;SDS011;74414;51.098;13.716;2024-01-15T12:42:20;6.38;;;3.22;;
84266;SDS011;74414;51.098;13.716;2024-01-15T12:44:46;6.93;;;3.38;;
84266;SDS011;74414;51.098;13.716;2024-01-15T12:47:11;5.82;;;3.08;;
84266;SDS011;74414;51.098;13.716;2024-01-15T12:49:37;7.80;;;4.27;;
84266;SDS011;74414;51.098;13.716;2024-01-15T12:52:05;9.63;;;3.78;;
84266;SDS011;74414;51.098;13.716;2024-01-15T12:54:33;9.35;;;3.63;;
84266;SDS011;74414;51.098;13.716;2024-01-15T12:56:59;7.20;;;3.05;;
84266;SDS011;74414;51.098;13.716;2024-01-15T12:59:24;7.53;;;3.30;;
84266;SDS011;74414;51.098;13.716;2024-01-15T13:01:49;8.13;;;3.50;;
84266;SDS011;74414;51.098;13.716;2024-01-15T13:04:24;8.25;;;3.58;;
84266;SDS011;74414;51.098;13.716;2024-01-15T13:06:50;6.82;;;3.88;;
84266;SDS011;74414;51.098;13.716;2024-01-15T13:09:16;7.20;;;3.50;;
84266;SDS011;74414;51.098;13.716;2024-01-15T13:11:42;8.90;;;3.45;;
84266;SDS011;74414;51.098;13.716;2024-01-15T13:14:08;6.97;;;3.80;;
84266;SDS011;74414;51.098;13.716;2024-01-15T13:16:34;6.17;;;3.47;;
84266;SDS011;74414;51.098;13.716;2024-01-15T13:18:59;7.77;;;3.63;;
84266;SDS011;74414;51.098;13.716;2024-01-15T13:21:24;5.13;;;3.70;;
84266;SDS011;74414;51.098;13.716;2024-01-15T13:23:50;6.30;;;3.08;;
84266;SDS011;74414;51.098;13.716;2024-01-15T13:26:15;7.93;;;4.05;;
84266;SDS011;74414;51.098;13.716;2024-01-15T13:28:43;7.28;;;3.67;;
84266;SDS011;74414;51.098;13.716;2024-01-15T13:31:08;6.97;;;3.42;;
84266;SDS011;74414;51.098;13.716;2024-01-15T13:33:34;8.00;;;3.58;;
84266;SDS011;74414;51.098;13.716;2024-01-15T13:35:59;6.17;;;3.23;;
84266;SDS011;74414;51.098;13.716;2024-01-15T13:38:24;7.13;;;3.10;;
84266;SDS011;74414;51.098;13.716;2024-01-15T13:40:50;5.53;;;3.47;;
84266;SDS011;74414;51.098;13.716;2024-01-15T13:43:15;6.82;;;3.28;;
84266;SDS011;74414;51.098;13.716;2024-01-15T13:45:41;7.85;;;3.95;;
84266;SDS011;74414;51.098;13.716;2024-01-15T13:48:06;6.65;;;3.13;;
84266;SDS011;74414;51.098;13.716;2024-01-15T13:50:33;7.70;;;3.63;;
84266;SDS011;74414;51.098;13.716;2024-01-15T13:53:00;7.85;;;3.67;;
84266;SDS011;74414;51.098;13.716;2024-01-15T13:55:25;14.50;;;5.65;;
84266;SDS011;74414;51.098;13.716;2024-01-15T13:57:50;12.03;;;4.93;;
84266;SDS011;74414;51.098;13.716;2024-01-15T14:00:16;9.33;;;4.43;;
84266;SDS011;74414;51.098;13.716;2024-01-15T14:02:45;10.40;;;3.80;;
84266;SDS011;74414;51.098;13.716;2024-01-15T14:05:11;9.43;;;4.72;;
84266;SDS011;74414;51.098;13.716;2024-01-15T14:07:38;10.63;;;5.00;;
84266;SDS011;74414;51.098;13.716;2024-01-15T14:10:04;11.45;;;4.80;;
84266;SDS011;74414;51.098;13.716;2024-01-15T14:12:30;11.25;;;5.40;;
84266;SDS011;74414;51.098;13.716;2024-01-15T14:14:56;7.78;;;4.05;;
84266;SDS011;74414;51.098;13.716;2024-01-15T14:17:21;9.43;;;4.53;;
84266;SDS011;74414;51.098;13.716;2024-01-15T14:19:46;8.00;;;4.07;;
84266;SDS011;74414;51.098;13.716;2024-01-15T14:22:12;9.20;;;3.72;;
84266;SDS011;74414;51.098;13.716;2024-01-15T14:24:37;9.47;;;4.03;;
84266;SDS011;74414;51.098;13.716;2024-01-15T14:27:02;10.97;;;4.67;;
84266;SDS011;74414;51.098;13.716;2024-01-15T14:29:28;11.35;;;5.60;;